createdAt,value
2019-05-14T00:00:21.760Z,45.20
2019-05-14T00:05:26.012Z,45.30
2019-05-14T00:10:31.993Z,45.60
2019-05-14T00:15:35.999Z,45.40
2019-05-14T00:20:41.986Z,45.30
2019-05-14T00:25:45.502Z,45.50
2019-05-14T00:30:49.439Z,45.80
2019-05-14T00:35:53.315Z,45.50
2019-05-14T00:40:57.271Z,45.90
2019-05-14T00:46:01.812Z,45.80
2019-05-14T00:51:06.159Z,45.60
2019-05-14T00:56:11.073Z,45.60
2019-05-14T01:01:15.346Z,45.70
2019-05-14T01:06:21.790Z,46.10
2019-05-14T01:11:25.790Z,45.90
2019-05-14T01:16:31.826Z,45.90
2019-05-14T01:21:36.263Z,45.90
2019-05-14T01:26:41.615Z,45.90
2019-05-14T01:31:45.635Z,45.90
2019-05-14T01:36:49.884Z,46.10
2019-05-14T01:41:54.111Z,46.20
2019-05-14T01:46:58.610Z,46.10
2019-05-14T01:52:02.551Z,46.00
2019-05-14T01:57:06.727Z,46.20
2019-05-14T02:02:11.734Z,46.10
2019-05-14T02:07:16.263Z,46.00
2019-05-14T02:12:22.414Z,46.40
2019-05-14T02:17:26.962Z,46.40
2019-05-14T02:22:33.665Z,46.20
2019-05-14T02:27:37.948Z,46.20
2019-05-14T02:32:41.877Z,46.40
2019-05-14T02:37:46.072Z,46.90
2019-05-14T02:42:50.629Z,46.20
2019-05-14T02:47:54.868Z,46.90
2019-05-14T02:52:59.792Z,46.20
2019-05-14T02:58:04.494Z,46.30
2019-05-14T03:03:09.807Z,46.40
2019-05-14T03:08:14.137Z,46.30
2019-05-14T03:13:20.352Z,46.50
2019-05-14T03:18:23.875Z,46.40
2019-05-14T03:23:30.240Z,46.40
2019-05-14T03:28:34.159Z,46.60
2019-05-14T03:33:43.655Z,46.60
2019-05-14T03:38:44.624Z,46.50
2019-05-14T03:43:49.656Z,47.20
2019-05-14T03:48:54.388Z,46.30
2019-05-14T03:54:06.466Z,46.60
2019-05-14T03:59:04.402Z,46.40
2019-05-14T04:04:10.220Z,46.40
2019-05-14T04:09:15.690Z,46.30
2019-05-14T04:14:22.932Z,46.40
2019-05-14T04:19:30.032Z,46.80
2019-05-14T04:24:41.072Z,46.40
2019-05-14T04:29:43.152Z,46.60
2019-05-14T04:34:53.463Z,46.60
2019-05-14T04:39:59.298Z,46.90
2019-05-14T04:45:05.702Z,46.90
2019-05-14T04:50:10.673Z,47.00
2019-05-14T04:55:15.078Z,48.90
2019-05-14T05:00:19.981Z,51.90
2019-05-14T05:05:24.984Z,50.00
2019-05-14T05:10:29.828Z,48.80
2019-05-14T05:15:34.215Z,48.40
2019-05-14T05:20:39.320Z,48.30
2019-05-14T05:25:44.014Z,48.10
2019-05-14T05:30:49.110Z,48.20
2019-05-14T05:35:53.155Z,48.10
2019-05-14T05:41:00.001Z,48.30
2019-05-14T05:46:03.911Z,48.40
2019-05-14T05:51:09.148Z,48.20
2019-05-14T05:56:13.910Z,48.10
2019-05-14T06:01:19.575Z,48.10
2019-05-14T06:06:24.247Z,48.30
2019-05-14T06:11:29.188Z,48.10
2019-05-14T06:16:33.462Z,48.10
2019-05-14T06:21:39.788Z,48.30
2019-05-14T06:26:44.460Z,48.40
2019-05-14T06:31:49.522Z,48.30
2019-05-14T06:36:53.927Z,48.30
2019-05-14T06:41:58.708Z,48.30
2019-05-14T06:47:03.328Z,48.30
2019-05-14T06:52:08.760Z,48.50
2019-05-14T06:57:13.192Z,48.50
2019-05-14T07:02:19.332Z,48.40
2019-05-14T07:07:23.625Z,48.50
2019-05-14T07:12:29.348Z,48.70
2019-05-14T07:17:33.935Z,48.10
2019-05-14T07:22:39.039Z,48.20
2019-05-14T07:27:43.475Z,48.30
2019-05-14T07:32:48.432Z,48.30
2019-05-14T07:37:53.343Z,48.20
2019-05-14T07:42:58.358Z,48.10
2019-05-14T07:48:02.816Z,47.90
2019-05-14T07:53:09.022Z,47.90
2019-05-14T07:58:13.295Z,47.60
2019-05-14T08:03:19.039Z,47.60
2019-05-14T08:08:22.695Z,47.40
2019-05-14T08:13:28.215Z,47.00
2019-05-14T08:18:32.747Z,47.50
2019-05-14T08:23:39.084Z,47.00
2019-05-14T08:28:42.883Z,47.10
2019-05-14T08:33:48.833Z,46.50
2019-05-14T08:38:53.139Z,46.90
2019-05-14T08:43:59.291Z,46.80
2019-05-14T08:49:03.043Z,47.00
2019-05-14T08:54:08.267Z,47.30
2019-05-14T08:59:12.944Z,47.30
2019-05-14T09:04:22.372Z,46.90
2019-05-14T09:09:23.456Z,47.10
2019-05-14T09:14:28.140Z,47.10
2019-05-14T09:19:32.749Z,46.30
2019-05-14T09:24:38.741Z,46.60
2019-05-14T09:29:42.751Z,46.40
2019-05-14T09:34:48.657Z,46.10
2019-05-14T09:39:52.719Z,46.50
2019-05-14T09:44:59.425Z,46.60
2019-05-14T09:50:18.348Z,45.90
2019-05-14T09:55:09.642Z,45.50
2019-05-14T10:00:14.698Z,46.50
2019-05-14T10:05:19.605Z,45.60
2019-05-14T10:10:24.412Z,45.40
2019-05-14T10:15:28.776Z,44.80
2019-05-14T10:20:41.202Z,45.00
2019-05-14T10:25:41.892Z,45.30
2019-05-14T10:30:44.155Z,45.20
2019-05-14T10:35:48.586Z,45.10
2019-05-14T10:40:53.206Z,44.80
2019-05-14T10:45:58.063Z,44.50
2019-05-14T10:51:03.543Z,44.30
2019-05-14T10:56:09.890Z,44.10
2019-05-14T11:01:13.959Z,43.90
2019-05-14T11:06:18.905Z,43.60
2019-05-14T11:11:23.229Z,43.80
2019-05-14T11:16:28.417Z,44.30
2019-05-14T11:21:33.195Z,43.50
2019-05-14T11:26:39.195Z,43.50
2019-05-14T11:31:43.977Z,42.80
2019-05-14T11:36:49.709Z,43.00
2019-05-14T11:41:54.424Z,43.00
2019-05-14T11:47:02.430Z,43.00
2019-05-14T11:52:08.725Z,42.60
2019-05-14T11:57:11.845Z,42.40
2019-05-14T12:02:18.656Z,41.80
2019-05-14T12:07:22.352Z,40.10
2019-05-14T12:12:28.785Z,40.80
2019-05-14T12:17:32.519Z,40.50
2019-05-14T12:22:39.043Z,41.00
2019-05-14T12:27:42.773Z,41.30
2019-05-14T12:32:49.787Z,41.20
2019-05-14T12:37:52.598Z,40.80
2019-05-14T12:42:58.981Z,42.00
2019-05-14T12:48:02.056Z,41.30
2019-05-14T12:53:08.308Z,41.60
2019-05-14T12:58:12.574Z,41.40
2019-05-14T13:03:19.006Z,39.70
2019-05-14T13:08:23.235Z,39.30
2019-05-14T13:13:29.105Z,39.20
2019-05-14T13:18:33.520Z,39.20
2019-05-14T13:23:38.335Z,39.40
2019-05-14T13:28:42.567Z,39.70
2019-05-14T13:33:48.910Z,39.70
2019-05-14T13:38:52.327Z,39.70
2019-05-14T13:43:58.744Z,39.90
2019-05-14T13:49:02.787Z,40.00
2019-05-14T13:54:08.513Z,39.80
2019-05-14T13:59:12.523Z,39.90
2019-05-14T14:04:18.309Z,40.90
2019-05-14T14:09:22.468Z,39.80
2019-05-14T14:14:28.916Z,39.10
2019-05-14T14:19:33.103Z,39.00
2019-05-14T14:24:38.659Z,39.30
2019-05-14T14:29:43.006Z,39.50
2019-05-14T14:34:47.171Z,39.60
2019-05-14T14:39:51.593Z,39.60
2019-05-14T14:44:56.151Z,39.70
2019-05-14T14:50:00.552Z,39.70
2019-05-14T14:55:05.087Z,39.30
2019-05-14T15:00:11.112Z,38.30
2019-05-14T15:05:15.596Z,38.80
2019-05-14T15:10:19.669Z,38.70
2019-05-14T15:15:23.883Z,38.50
2019-05-14T15:20:28.981Z,38.90
2019-05-14T15:25:33.465Z,38.50
2019-05-14T15:30:39.602Z,38.80
2019-05-14T15:35:43.030Z,38.70
2019-05-14T15:40:48.796Z,39.10
2019-05-14T15:45:53.261Z,39.20
2019-05-14T15:50:59.834Z,38.80
2019-05-14T15:56:03.670Z,38.50
2019-05-14T16:01:09.923Z,38.20
2019-05-14T16:06:14.204Z,38.50
2019-05-14T16:11:18.747Z,38.40
2019-05-14T16:16:23.168Z,38.50
2019-05-14T16:21:28.888Z,38.60
2019-05-14T16:26:33.051Z,39.10
2019-05-14T16:31:43.025Z,38.50
2019-05-14T16:36:43.076Z,37.40
2019-05-14T16:41:49.042Z,37.50
2019-05-14T16:46:53.351Z,37.30
2019-05-14T16:51:59.596Z,37.50
2019-05-14T16:57:03.224Z,37.60
2019-05-14T17:02:09.139Z,38.90
2019-05-14T17:07:14.107Z,38.90
2019-05-14T17:12:22.487Z,38.80
2019-05-14T17:17:24.411Z,38.80
2019-05-14T17:22:33.245Z,38.60
2019-05-14T17:27:34.626Z,38.60
2019-05-14T17:32:39.385Z,38.60
2019-05-14T17:37:44.423Z,39.40
2019-05-14T17:42:48.722Z,38.50
2019-05-14T17:47:53.719Z,38.40
2019-05-14T17:53:00.096Z,38.90
2019-05-14T17:58:03.451Z,38.60
2019-05-14T18:03:08.722Z,38.70
2019-05-14T18:08:24.053Z,39.00
2019-05-14T18:13:39.261Z,38.80
2019-05-14T18:18:44.145Z,39.40
2019-05-14T18:23:49.142Z,39.30
2019-05-14T18:28:53.714Z,39.40
2019-05-14T18:33:58.737Z,39.80
2019-05-14T18:39:03.696Z,39.40
2019-05-14T18:44:08.478Z,40.00
2019-05-14T18:49:13.153Z,40.20
2019-05-14T18:54:17.415Z,40.40
2019-05-14T18:59:21.720Z,40.90
2019-05-14T19:04:27.974Z,40.70
2019-05-14T19:09:32.271Z,41.60
2019-05-14T19:14:38.801Z,41.10
2019-05-14T19:19:42.973Z,40.80
2019-05-14T19:24:49.232Z,40.60
2019-05-14T19:29:53.396Z,40.70
2019-05-14T19:34:57.638Z,40.70
2019-05-14T19:40:01.924Z,40.90
2019-05-14T19:45:08.367Z,41.00
2019-05-14T19:50:12.795Z,40.90
2019-05-14T19:55:18.910Z,41.20
2019-05-14T20:00:24.823Z,41.10
2019-05-14T20:05:28.845Z,41.30
2019-05-14T20:10:33.011Z,41.90
2019-05-14T20:15:38.989Z,42.00
2019-05-14T20:20:43.340Z,42.40
2019-05-14T20:25:48.187Z,42.50
2019-05-14T20:30:53.623Z,42.70
2019-05-14T20:35:58.955Z,43.30
2019-05-14T20:41:03.622Z,43.20
2019-05-14T20:46:08.129Z,43.00
2019-05-14T20:51:12.609Z,43.20
2019-05-14T20:56:18.786Z,44.20
2019-05-14T21:01:22.777Z,43.80
2019-05-14T21:06:28.021Z,43.60
2019-05-14T21:11:32.536Z,43.90
2019-05-14T21:16:38.963Z,44.00
2019-05-14T21:21:42.391Z,44.60
2019-05-14T21:26:47.252Z,44.40
2019-05-14T21:31:51.115Z,44.60
2019-05-14T21:36:55.032Z,44.50
2019-05-14T21:41:59.542Z,44.70
2019-05-14T21:47:03.790Z,44.80
2019-05-14T21:52:08.996Z,44.90
2019-05-14T21:57:13.080Z,45.00
2019-05-14T22:02:24.928Z,45.10
2019-05-14T22:07:25.135Z,45.10
2019-05-14T22:12:29.306Z,45.20
2019-05-14T22:17:33.684Z,46.00
2019-05-14T22:22:39.099Z,45.50
2019-05-14T22:27:43.455Z,45.50
2019-05-14T22:32:47.344Z,45.30
2019-05-14T22:37:51.847Z,45.40
2019-05-14T22:43:00.006Z,45.20
2019-05-14T22:48:01.687Z,45.60
2019-05-14T22:53:05.575Z,45.50
2019-05-14T22:58:24.738Z,45.50
2019-05-14T23:03:18.363Z,45.50
2019-05-14T23:08:21.802Z,45.50
2019-05-14T23:13:27.976Z,45.60
2019-05-14T23:18:32.473Z,45.70
2019-05-14T23:23:39.018Z,45.60
2019-05-14T23:28:45.950Z,45.50
2019-05-14T23:33:48.982Z,45.60
2019-05-14T23:38:54.116Z,45.50
2019-05-14T23:43:57.983Z,45.80
2019-05-14T23:49:02.151Z,46.20
2019-05-14T23:54:08.560Z,45.80
2019-05-14T23:59:12.075Z,45.60
